Weather History for Lakeville, MN

Change the Weather History Date:

Thursday, January 2, 2014

  Actual Average Record
Temperature  
Mean Temperature -6 °F -  
Max Temperature 3 °F 22 °F 46 °F (1998)
Min Temperature -16 °F 3 °F -26 °F (1979)
Degree Days  
Heating Degree Days 72    
Moisture  
Dew Point -14 °F    
Average Humidity 68    
Maximum Humidity 84    
Minimum Humidity 51    
Precipitation  
Precipitation 0.00 in - - ()
Sea Level Pressure  
Sea Level Pressure 30.42 in    
Wind  
Wind Speed 4 mph (NW)    
Max Wind Speed 7 mph    
Max Gust Speed -    
Visibility 10 miles    
Events      
Averages and records for this station are not official NWS values.
T = Trace of Precipitation, MM = Missing Value Source: NWS Daily Summary

Daily Weather History Graph

Daily Weather History Graph

Search for Another Location

Airport:

Trip Planner

Search our weather history database for the weather conditions in past years. The results will help you decide how hot, cold, wet, or windy it might be!

Date:

Astronomy

Jan. 02, 2014 Rise Set
Actual Time 7:49 AM CST 4:44 PM CST
Civil Twilight 7:16 AM CST 5:17 PM CST
Nautical Twilight 6:39 AM CST 5:54 PM CST
Astronomical Twilight 6:04 AM CST 6:29 PM CST
Moon 8:27 AM CST (1/2) 6:47 PM CST (1/2)
Length of Visible Light 10h 01m
Length of Day
8h 54m
Waxing Crescent, 3% of the Moon is Illuminated
Jan 2
Waxing Crescent
Jan 7
First Quarter
Jan 15
Full
Jan 23
Last Quarter
Jan 30
New

Hourly Weather History & Observations

Time (CST) Temp. Windchill Dew Point Humidity Pressure Visibility Wind Dir Wind Speed Gust Speed Precip Events Conditions
12:05 AM -0.4 °F -13.4 °F -9.4 °F 66% 30.40 in 10.0 mi North 6.9 mph - N/A   Overcast
12:25 AM -2.2 °F -12.5 °F -9.4 °F 71% 30.39 in 10.0 mi NNW 4.6 mph - N/A   Overcast
12:45 AM -2.2 °F -14.2 °F -9.4 °F 71% 30.39 in 10.0 mi NNW 5.8 mph - N/A   Overcast
1:05 AM -2.2 °F -12.5 °F -9.4 °F 71% 30.39 in 10.0 mi North 4.6 mph - N/A   Overcast
1:25 AM -2.2 °F -12.5 °F -9.4 °F 71% 30.38 in 10.0 mi North 4.6 mph - N/A   Overcast
1:45 AM -2.2 °F -12.5 °F -9.4 °F 71% 30.38 in 10.0 mi North 4.6 mph - N/A   Overcast
2:05 AM -2.2 °F -12.5 °F -9.4 °F 71% 30.38 in 10.0 mi North 4.6 mph - N/A   Overcast
2:25 AM -2.2 °F -12.5 °F -9.4 °F 71% 30.39 in 10.0 mi North 4.6 mph - N/A   Overcast
2:45 AM -2.2 °F -15.6 °F -9.4 °F 71% 30.39 in 10.0 mi NNW 6.9 mph - N/A   Overcast
3:05 AM -2.2 °F -15.6 °F -9.4 °F 71% 30.39 in 10.0 mi NNW 6.9 mph - N/A   Overcast
3:25 AM -2.2 °F -14.2 °F -9.4 °F 71% 30.38 in 10.0 mi North 5.8 mph - N/A   Overcast
3:45 AM -4.0 °F -14.6 °F -9.4 °F 78% 30.38 in 10.0 mi North 4.6 mph - N/A   Overcast
4:05 AM -4.0 °F -12.4 °F -9.4 °F 78% 30.38 in 10.0 mi North 3.5 mph - N/A   Overcast
4:25 AM -5.8 °F -18.4 °F -11.2 °F 77% 30.38 in 10.0 mi NNW 5.8 mph - N/A   Scattered Clouds
4:45 AM -5.8 °F -16.7 °F -11.2 °F 77% 30.39 in 10.0 mi North 4.6 mph - N/A   Clear
5:05 AM -7.6 °F -18.8 °F -11.2 °F 84% 30.39 in 10.0 mi North 4.6 mph - N/A   Clear
5:25 AM -7.6 °F - -13.0 °F 77% 30.40 in 10.0 mi Calm Calm - N/A   Clear
5:45 AM -7.6 °F -18.8 °F -11.2 °F 84% 30.40 in 10.0 mi North 4.6 mph - N/A   Mostly Cloudy
6:05 AM -5.8 °F -19.9 °F -11.2 °F 77% 30.41 in 10.0 mi NNW 6.9 mph - N/A   Overcast
6:25 AM -5.8 °F -19.9 °F -11.2 °F 77% 30.41 in 10.0 mi NNW 6.9 mph - N/A   Overcast
6:45 AM -5.8 °F -16.7 °F -11.2 °F 77% 30.41 in 10.0 mi NNW 4.6 mph - N/A   Overcast
7:05 AM -5.8 °F -16.7 °F -11.2 °F 77% 30.41 in 10.0 mi NNW 4.6 mph - N/A   Overcast
7:25 AM -7.6 °F -20.6 °F -13.0 °F 77% 30.42 in 10.0 mi NNW 5.8 mph - N/A   Scattered Clouds
7:45 AM -11.2 °F -24.8 °F -16.6 °F 77% 30.42 in 10.0 mi NNW 5.8 mph - N/A   Clear
8:05 AM -9.4 °F -18.6 °F -14.8 °F 77% 30.43 in 10.0 mi NNW 3.5 mph - N/A   Clear
8:25 AM -9.4 °F -22.7 °F -14.8 °F 77% 30.44 in 10.0 mi NNW 5.8 mph - N/A   Clear
8:45 AM -9.4 °F -18.6 °F -14.8 °F 77% 30.44 in 10.0 mi NNW 3.5 mph - N/A   Clear
9:05 AM -7.6 °F -18.8 °F -14.8 °F 71% 30.44 in 10.0 mi North 4.6 mph - N/A   Clear
9:25 AM -7.6 °F -18.8 °F -14.8 °F 71% 30.45 in 10.0 mi North 4.6 mph - N/A   Clear
9:45 AM -7.6 °F -16.5 °F -14.8 °F 71% 30.45 in 10.0 mi North 3.5 mph - N/A   Clear
10:05 AM -5.8 °F -16.7 °F -13.0 °F 71% 30.46 in 10.0 mi North 4.6 mph - N/A   Clear
10:25 AM -5.8 °F -14.5 °F -13.0 °F 71% 30.46 in 10.0 mi North 3.5 mph - N/A   Clear
10:45 AM -4.0 °F - -13.0 °F 65% 30.46 in 10.0 mi Calm Calm - N/A   Clear
11:05 AM -2.2 °F -12.5 °F -11.2 °F 66% 30.46 in 10.0 mi North 4.6 mph - N/A   Clear
11:26 AM -0.4 °F -12.0 °F -11.2 °F 60% 30.46 in 10.0 mi WNW 5.8 mph - N/A   Clear
11:45 AM -0.4 °F - -11.2 °F 60% 30.45 in 10.0 mi Calm Calm - N/A   Clear
12:05 PM -0.4 °F - -11.2 °F 60% 30.45 in 10.0 mi Calm Calm - N/A   Clear
12:26 PM 1.4 °F - -11.2 °F 56% 30.45 in 10.0 mi Calm Calm - N/A   Clear
12:45 PM 1.4 °F - -11.2 °F 56% 30.43 in 10.0 mi Calm Calm - N/A   Clear
1:05 PM 1.4 °F -6.2 °F -11.2 °F 56% 30.42 in 10.0 mi WNW 3.5 mph - N/A   Clear
1:26 PM 1.4 °F -9.9 °F -11.2 °F 56% 30.43 in 10.0 mi WNW 5.8 mph - N/A   Clear
1:45 PM 1.4 °F - -11.2 °F 56% 30.42 in 10.0 mi Calm Calm - N/A   Clear
2:05 PM 1.4 °F - -11.2 °F 56% 30.42 in 10.0 mi Calm Calm - N/A   Clear
2:26 PM 3.2 °F -6.2 °F -11.2 °F 51% 30.43 in 10.0 mi WNW 4.6 mph - N/A   Clear
2:45 PM 1.4 °F -8.3 °F -11.2 °F 56% 30.43 in 10.0 mi WNW 4.6 mph - N/A   Clear
3:05 PM 1.4 °F -9.9 °F -13.0 °F 51% 30.44 in 10.0 mi West 5.8 mph - N/A   Clear
3:26 PM 1.4 °F -8.3 °F -13.0 °F 51% 30.44 in 10.0 mi West 4.6 mph - N/A   Clear
3:45 PM -0.4 °F -12.0 °F -14.8 °F 51% 30.44 in 10.0 mi West 5.8 mph - N/A   Clear
4:05 PM -0.4 °F -12.0 °F -14.8 °F 51% 30.44 in 10.0 mi West 5.8 mph - N/A   Clear
4:26 PM -4.0 °F -17.8 °F -14.8 °F 60% 30.45 in 10.0 mi West 6.9 mph - N/A   Clear
4:45 PM -2.2 °F -12.5 °F -14.8 °F 55% 30.44 in 10.0 mi West 4.6 mph - N/A   Clear
5:05 PM -4.0 °F -16.3 °F -16.6 °F 55% 30.44 in 10.0 mi West 5.8 mph - N/A   Clear
5:26 PM -5.8 °F -18.4 °F -16.6 °F 60% 30.44 in 10.0 mi West 5.8 mph - N/A   Clear
5:45 PM -5.8 °F -16.7 °F -16.6 °F 60% 30.45 in 10.0 mi West 4.6 mph - N/A   Clear
6:05 PM -7.6 °F -18.8 °F -18.4 °F 59% 30.45 in 10.0 mi West 4.6 mph - N/A   Clear
6:25 PM -7.6 °F -16.5 °F -18.4 °F 59% 30.45 in 10.0 mi West 3.5 mph - N/A   Clear
6:45 PM -9.4 °F - -18.4 °F 65% 30.44 in 10.0 mi Calm Calm - N/A   Clear
7:05 PM -9.4 °F -18.6 °F -18.4 °F 65% 30.43 in 10.0 mi WSW 3.5 mph - N/A   Clear
7:25 PM -11.2 °F - -18.4 °F 70% 30.44 in 10.0 mi Calm Calm - N/A   Clear
7:45 PM -13.0 °F -27.0 °F -20.2 °F 70% 30.44 in 10.0 mi West 5.8 mph - N/A   Clear
8:05 PM -11.2 °F -20.6 °F -18.4 °F 70% 30.43 in 10.0 mi West 3.5 mph - N/A   Clear
8:25 PM -11.2 °F - -18.4 °F 70% 30.42 in 10.0 mi Calm Calm - N/A   Clear
8:45 PM -11.2 °F - -18.4 °F 70% 30.41 in 10.0 mi Calm Calm - N/A   Clear
9:05 PM -11.2 °F - -18.4 °F 70% 30.40 in 10.0 mi Calm Calm - N/A   Clear
9:25 PM -14.8 °F - -20.2 °F 77% 30.39 in 10.0 mi Calm Calm - N/A   Unknown
9:45 PM -14.8 °F - -20.2 °F 77% 30.38 in 10.0 mi Calm Calm - N/A   Clear
10:05 PM -14.8 °F - -20.2 °F 77% 30.39 in 10.0 mi Calm Calm - N/A   Clear
10:25 PM -16.6 °F - -20.2 °F 84% 30.38 in 10.0 mi Calm Calm - N/A   Clear
10:45 PM -16.6 °F - -20.2 °F 84% 30.38 in 10.0 mi Calm Calm - N/A   Clear
11:05 PM -14.8 °F -27.2 °F -20.2 °F 77% 30.37 in 10.0 mi South 4.6 mph - N/A   Clear
11:25 PM -14.8 °F -24.8 °F -20.2 °F 77% 30.36 in 10.0 mi SSW 3.5 mph - N/A   Clear
11:45 PM -16.6 °F - -22.0 °F 76% 30.35 in 10.0 mi Calm Calm - N/A   Clear